sensor_id;sensor_type;location;lat;lon;timestamp;pressure;altitude;pressure_sealevel;temperature;humidity
19150;BME280;9707;49.158;8.632;2023-02-02T00:01:16;101101.03;;;16.75;34.90
19150;BME280;9707;49.158;8.632;2023-02-02T00:03:42;101106.41;;;16.75;34.91
19150;BME280;9707;49.158;8.632;2023-02-02T00:06:07;101111.88;;;16.74;35.27
19150;BME280;9707;49.158;8.632;2023-02-02T00:08:33;101113.59;;;16.75;35.29
19150;BME280;9707;49.158;8.632;2023-02-02T00:11:00;101117.19;;;16.75;35.17
19150;BME280;9707;49.158;8.632;2023-02-02T00:13:25;101113.53;;;16.76;35.16
19150;BME280;9707;49.158;8.632;2023-02-02T00:15:52;101110.75;;;16.78;35.25
19150;BME280;9707;49.158;8.632;2023-02-02T00:18:17;101111.66;;;16.78;35.29
19150;BME280;9707;49.158;8.632;2023-02-02T00:20:43;101117.03;;;16.78;35.41
19150;BME280;9707;49.158;8.632;2023-02-02T00:23:09;101105.38;;;16.78;35.37
19150;BME280;9707;49.158;8.632;2023-02-02T00:25:34;101113.44;;;16.78;35.39
19150;BME280;9707;49.158;8.632;2023-02-02T00:28:00;101123.25;;;16.79;35.54
19150;BME280;9707;49.158;8.632;2023-02-02T00:30:25;101109.88;;;16.77;35.45
19150;BME280;9707;49.158;8.632;2023-02-02T00:32:50;101110.91;;;16.75;35.73
19150;BME280;9707;49.158;8.632;2023-02-02T00:35:17;101103.81;;;16.74;35.75
19150;BME280;9707;49.158;8.632;2023-02-02T00:37:42;101099.38;;;16.73;35.64
19150;BME280;9707;49.158;8.632;2023-02-02T00:40:09;101104.75;;;16.73;35.44
19150;BME280;9707;49.158;8.632;2023-02-02T00:42:34;101104.84;;;16.71;35.67
19150;BME280;9707;49.158;8.632;2023-02-02T00:45:01;101110.22;;;16.71;35.55
19150;BME280;9707;49.158;8.632;2023-02-02T00:47:45;101099.44;;;16.71;36.08
19150;BME280;9707;49.158;8.632;2023-02-02T00:50:18;101095.91;;;16.71;36.16
19150;BME280;9707;49.158;8.632;2023-02-02T00:52:44;101099.38;;;16.73;35.84
19150;BME280;9707;49.158;8.632;2023-02-02T00:55:11;101102.06;;;16.73;35.76
19150;BME280;9707;49.158;8.632;2023-02-02T00:57:37;101089.66;;;16.70;36.08
19150;BME280;9707;49.158;8.632;2023-02-02T01:00:04;101109.38;;;16.71;36.08
19150;BME280;9707;49.158;8.632;2023-02-02T01:02:31;101104.84;;;16.71;35.82
19150;BME280;9707;49.158;8.632;2023-02-02T01:04:56;101100.34;;;16.72;36.12
19150;BME280;9707;49.158;8.632;2023-02-02T01:07:22;101102.94;;;16.73;35.83
19150;BME280;9707;49.158;8.632;2023-02-02T01:09:47;101111.78;;;16.75;36.01
19150;BME280;9707;49.158;8.632;2023-02-02T01:12:12;101118.91;;;16.76;36.12
19150;BME280;9707;49.158;8.632;2023-02-02T01:14:38;101111.72;;;16.77;35.81
19150;BME280;9707;49.158;8.632;2023-02-02T01:17:03;101116.22;;;16.76;35.99
19150;BME280;9707;49.158;8.632;2023-02-02T01:19:29;101114.34;;;16.78;36.25
19150;BME280;9707;49.158;8.632;2023-02-02T01:21:55;101110.75;;;16.78;36.12
19150;BME280;9707;49.158;8.632;2023-02-02T01:24:20;101120.56;;;16.79;35.78
19150;BME280;9707;49.158;8.632;2023-02-02T01:26:45;101121.53;;;16.78;36.08
19150;BME280;9707;49.158;8.632;2023-02-02T01:29:11;101108.00;;;16.79;36.18
19150;BME280;9707;49.158;8.632;2023-02-02T01:31:36;101108.84;;;16.80;36.11
19150;BME280;9707;49.158;8.632;2023-02-02T01:34:02;101113.38;;;16.79;36.08
19150;BME280;9707;49.158;8.632;2023-02-02T01:36:27;101117.03;;;16.78;35.82
19150;BME280;9707;49.158;8.632;2023-02-02T01:38:53;101111.72;;;16.77;36.01
19150;BME280;9707;49.158;8.632;2023-02-02T01:41:21;101109.03;;;16.77;36.20
19150;BME280;9707;49.158;8.632;2023-02-02T01:43:51;101099.22;;;16.76;35.88
19150;BME280;9707;49.158;8.632;2023-02-02T01:46:28;101110.91;;;16.75;36.22
19150;BME280;9707;49.158;8.632;2023-02-02T01:49:13;101107.44;;;16.73;35.78
19150;BME280;9707;49.158;8.632;2023-02-02T01:51:43;101104.69;;;16.74;35.86
19150;BME280;9707;49.158;8.632;2023-02-02T01:54:21;101097.47;;;16.75;35.86
19150;BME280;9707;49.158;8.632;2023-02-02T01:56:54;101105.53;;;16.75;36.16
19150;BME280;9707;49.158;8.632;2023-02-02T01:59:22;101101.91;;;16.76;36.06
19150;BME280;9707;49.158;8.632;2023-02-02T02:01:49;101089.31;;;16.76;36.20
19150;BME280;9707;49.158;8.632;2023-02-02T02:04:16;101094.63;;;16.78;36.25
19150;BME280;9707;49.158;8.632;2023-02-02T02:06:42;101093.84;;;16.76;36.16
19150;BME280;9707;49.158;8.632;2023-02-02T02:09:07;101087.59;;;16.75;36.03
19150;BME280;9707;49.158;8.632;2023-02-02T02:11:34;101093.91;;;16.74;36.18
19150;BME280;9707;49.158;8.632;2023-02-02T02:14:03;101102.06;;;16.73;36.13
19150;BME280;9707;49.158;8.632;2023-02-02T02:22:31;101097.72;;;16.70;36.21
19150;BME280;9707;49.158;8.632;2023-02-02T02:28:29;101112.19;;;16.68;36.43
19150;BME280;9707;49.158;8.632;2023-02-02T02:31:43;101101.44;;;16.68;36.51
19150;BME280;9707;49.158;8.632;2023-02-02T02:34:07;101106.81;;;16.68;36.19
19150;BME280;9707;49.158;8.632;2023-02-02T02:36:48;101102.41;;;16.67;36.29
19150;BME280;9707;49.158;8.632;2023-02-02T02:39:21;101100.66;;;16.66;36.47
19150;BME280;9707;49.158;8.632;2023-02-02T02:41:53;101106.88;;;16.66;36.29
19150;BME280;9707;49.158;8.632;2023-02-02T02:44:20;101111.31;;;16.67;36.58
19150;BME280;9707;49.158;8.632;2023-02-02T02:46:47;101104.13;;;16.68;36.34
19150;BME280;9707;49.158;8.632;2023-02-02T02:49:12;101100.47;;;16.69;36.28
19150;BME280;9707;49.158;8.632;2023-02-02T02:54:07;101113.78;;;16.72;36.48
19150;BME280;9707;49.158;8.632;2023-02-02T03:02:21;101100.41;;;16.70;36.32
19150;BME280;9707;49.158;8.632;2023-02-02T03:07:28;101095.09;;;16.69;36.39
19150;BME280;9707;49.158;8.632;2023-02-02T03:09:57;101102.22;;;16.70;36.64
19150;BME280;9707;49.158;8.632;2023-02-02T03:12:25;101104.84;;;16.71;36.24
19150;BME280;9707;49.158;8.632;2023-02-02T03:14:50;101095.09;;;16.69;36.26
19150;BME280;9707;49.158;8.632;2023-02-02T03:17:16;101105.94;;;16.67;36.41
19150;BME280;9707;49.158;8.632;2023-02-02T03:19:41;101101.50;;;16.66;36.60
19150;BME280;9707;49.158;8.632;2023-02-02T03:22:06;101095.28;;;16.66;36.51
19150;BME280;9707;49.158;8.632;2023-02-02T03:24:32;101100.66;;;16.66;36.63
19150;BME280;9707;49.158;8.632;2023-02-02T03:26:57;101107.78;;;16.67;36.60
19150;BME280;9707;49.158;8.632;2023-02-02T03:29:22;101109.50;;;16.68;36.63
19150;BME280;9707;49.158;8.632;2023-02-02T03:31:48;101104.13;;;16.68;36.56
19150;BME280;9707;49.158;8.632;2023-02-02T03:34:13;101102.31;;;16.68;36.58
19150;BME280;9707;49.158;8.632;2023-02-02T03:36:38;101105.78;;;16.70;36.47
19150;BME280;9707;49.158;8.632;2023-02-02T03:39:04;101110.28;;;16.70;36.72
19150;BME280;9707;49.158;8.632;2023-02-02T03:41:29;101112.91;;;16.71;36.84
19150;BME280;9707;49.158;8.632;2023-02-02T03:43:54;101114.56;;;16.74;36.59
19150;BME280;9707;49.158;8.632;2023-02-02T03:46:19;101116.28;;;16.75;36.70
19150;BME280;9707;49.158;8.632;2023-02-02T03:48:45;101117.09;;;16.77;36.72
19150;BME280;9707;49.158;8.632;2023-02-02T03:51:12;101124.28;;;16.76;36.48
19150;BME280;9707;49.158;8.632;2023-02-02T03:53:39;101123.34;;;16.77;36.81
19150;BME280;9707;49.158;8.632;2023-02-02T03:56:05;101121.53;;;16.78;36.70
19150;BME280;9707;49.158;8.632;2023-02-02T03:58:31;101113.44;;;16.78;36.59
19150;BME280;9707;49.158;8.632;2023-02-02T04:01:08;101125.94;;;16.79;36.45
19150;BME280;9707;49.158;8.632;2023-02-02T04:03:35;101121.53;;;16.78;36.75
19150;BME280;9707;49.158;8.632;2023-02-02T04:06:00;101124.16;;;16.79;36.62
19150;BME280;9707;49.158;8.632;2023-02-02T04:08:25;101121.44;;;16.79;36.78
19150;BME280;9707;49.158;8.632;2023-02-02T04:10:52;101126.84;;;16.79;36.68
19150;BME280;9707;49.158;8.632;2023-02-02T04:13:17;101128.63;;;16.79;36.87
19150;BME280;9707;49.158;8.632;2023-02-02T04:15:43;101135.88;;;16.78;36.77
19150;BME280;9707;49.158;8.632;2023-02-02T04:18:08;101129.59;;;16.78;36.93
19150;BME280;9707;49.158;8.632;2023-02-02T04:20:33;101127.88;;;16.77;37.04
19150;BME280;9707;49.158;8.632;2023-02-02T04:22:58;101119.78;;;16.77;37.01
19150;BME280;9707;49.158;8.632;2023-02-02T04:25:24;101127.69;;;16.80;37.03
19150;BME280;9707;49.158;8.632;2023-02-02T04:27:49;101134.03;;;16.79;37.04
19150;BME280;9707;49.158;8.632;2023-02-02T04:30:15;101131.25;;;16.80;36.96
19150;BME280;9707;49.158;8.632;2023-02-02T04:32:40;101140.22;;;16.81;36.90
19150;BME280;9707;49.158;8.632;2023-02-02T04:35:06;101138.38;;;16.81;36.97
19150;BME280;9707;49.158;8.632;2023-02-02T04:37:31;101150.03;;;16.82;36.77
19150;BME280;9707;49.158;8.632;2023-02-02T04:39:57;101145.50;;;16.82;36.91
19150;BME280;9707;49.158;8.632;2023-02-02T04:42:22;101154.53;;;16.81;36.73
19150;BME280;9707;49.158;8.632;2023-02-02T04:44:47;101154.59;;;16.80;37.09
19150;BME280;9707;49.158;8.632;2023-02-02T04:47:13;101152.78;;;16.80;36.89
19150;BME280;9707;49.158;8.632;2023-02-02T04:49:38;101156.34;;;16.81;36.68
19150;BME280;9707;49.158;8.632;2023-02-02T04:52:04;101153.66;;;16.81;36.85
19150;BME280;9707;49.158;8.632;2023-02-02T04:54:29;101159.06;;;16.81;36.98
19150;BME280;9707;49.158;8.632;2023-02-02T04:56:54;101161.75;;;16.81;36.80
19150;BME280;9707;49.158;8.632;2023-02-02T04:59:20;101166.16;;;16.82;37.13
19150;BME280;9707;49.158;8.632;2023-02-02T05:01:45;101161.75;;;16.81;36.72
19150;BME280;9707;49.158;8.632;2023-02-02T05:04:10;101168.84;;;16.82;36.88
19150;BME280;9707;49.158;8.632;2023-02-02T05:06:36;101169.72;;;16.82;36.68
19150;BME280;9707;49.158;8.632;2023-02-02T05:09:02;101166.16;;;16.82;36.87
19150;BME280;9707;49.158;8.632;2023-02-02T05:11:27;101174.31;;;16.80;36.91
19150;BME280;9707;49.158;8.632;2023-02-02T05:13:53;101180.56;;;16.81;37.12
19150;BME280;9707;49.158;8.632;2023-02-02T05:16:20;101188.72;;;16.79;36.88
19150;BME280;9707;49.158;8.632;2023-02-02T05:18:53;101182.47;;;16.79;36.96
19150;BME280;9707;49.158;8.632;2023-02-02T05:21:20;101177.06;;;16.79;36.65
19150;BME280;9707;49.158;8.632;2023-02-02T05:23:45;101189.69;;;16.78;36.99
19150;BME280;9707;49.158;8.632;2023-02-02T05:26:22;101181.59;;;16.78;37.09
19150;BME280;9707;49.158;8.632;2023-02-02T05:28:48;101182.47;;;16.79;36.88
19150;BME280;9707;49.158;8.632;2023-02-02T05:31:14;101185.16;;;16.79;37.09
19150;BME280;9707;49.158;8.632;2023-02-02T05:33:39;101184.38;;;16.77;36.94
19150;BME280;9707;49.158;8.632;2023-02-02T05:36:05;101186.09;;;16.78;36.98
19150;BME280;9707;49.158;8.632;2023-02-02T05:38:31;101183.34;;;16.79;36.71
19150;BME280;9707;49.158;8.632;2023-02-02T05:40:56;101178.81;;;16.80;36.83
19150;BME280;9707;49.158;8.632;2023-02-02T05:43:26;101170.84;;;16.78;36.89
19150;BME280;9707;49.158;8.632;2023-02-02T05:45:51;101182.47;;;16.79;36.96
19150;BME280;9707;49.158;8.632;2023-02-02T05:48:16;101177.97;;;16.79;37.04
19150;BME280;9707;49.158;8.632;2023-02-02T05:50:43;101184.19;;;16.80;36.74
19150;BME280;9707;49.158;8.632;2023-02-02T05:53:12;101185.06;;;16.80;36.98
19150;BME280;9707;49.158;8.632;2023-02-02T05:55:37;101177.00;;;16.80;36.83
19150;BME280;9707;49.158;8.632;2023-02-02T05:58:02;101193.06;;;16.82;36.94
19150;BME280;9707;49.158;8.632;2023-02-02T06:00:28;101186.75;;;16.83;36.99
19150;BME280;9707;49.158;8.632;2023-02-02T06:02:53;101185.00;;;16.82;36.77
19150;BME280;9707;49.158;8.632;2023-02-02T06:05:18;101189.44;;;16.83;37.14
19150;BME280;9707;49.158;8.632;2023-02-02T06:07:43;101186.75;;;16.83;36.95
19150;BME280;9707;49.158;8.632;2023-02-02T06:10:09;101178.66;;;16.83;36.73
19150;BME280;9707;49.158;8.632;2023-02-02T06:12:35;101192.19;;;16.81;36.90
19150;BME280;9707;49.158;8.632;2023-02-02T06:15:00;101188.53;;;16.82;36.73
19150;BME280;9707;49.158;8.632;2023-02-02T06:17:25;101202.00;;;16.82;36.93
19150;BME280;9707;49.158;8.632;2023-02-02T06:19:50;101194.81;;;16.83;36.85
19150;BME280;9707;49.158;8.632;2023-02-02T06:22:16;101192.19;;;16.81;36.84
19150;BME280;9707;49.158;8.632;2023-02-02T06:24:41;101191.34;;;16.81;36.66
19150;BME280;9707;49.158;8.632;2023-02-02T06:27:06;101192.25;;;16.80;37.00
19150;BME280;9707;49.158;8.632;2023-02-02T06:29:31;101190.53;;;16.79;37.09
19150;BME280;9707;49.158;8.632;2023-02-02T06:31:57;101195.97;;;16.77;36.80
19150;BME280;9707;49.158;8.632;2023-02-02T06:34:22;101202.25;;;16.78;37.21
19150;BME280;9707;49.158;8.632;2023-02-02T06:36:47;101203.13;;;16.78;36.86
19150;BME280;9707;49.158;8.632;2023-02-02T06:39:13;101198.59;;;16.79;36.87
19150;BME280;9707;49.158;8.632;2023-02-02T06:41:38;101201.22;;;16.80;37.11
19150;BME280;9707;49.158;8.632;2023-02-02T06:44:04;101205.72;;;16.80;36.97
19150;BME280;9707;49.158;8.632;2023-02-02T06:46:30;101207.47;;;16.81;37.03
19150;BME280;9707;49.158;8.632;2023-02-02T06:48:55;101193.06;;;16.82;36.82
19150;BME280;9707;49.158;8.632;2023-02-02T06:51:20;101211.81;;;16.83;36.47
19150;BME280;9707;49.158;8.632;2023-02-02T06:53:47;101210.94;;;16.83;36.79
19150;BME280;9707;49.158;8.632;2023-02-02T06:56:13;101201.94;;;16.84;36.71
19150;BME280;9707;49.158;8.632;2023-02-02T06:58:39;101203.66;;;16.85;37.03
19150;BME280;9707;49.158;8.632;2023-02-02T07:01:07;101211.81;;;16.83;36.85
19150;BME280;9707;49.158;8.632;2023-02-02T07:03:33;101209.03;;;16.85;37.13
19150;BME280;9707;49.158;8.632;2023-02-02T07:06:09;101217.03;;;16.86;36.85
19150;BME280;9707;49.158;8.632;2023-02-02T07:08:35;101211.59;;;16.88;37.02
19150;BME280;9707;49.158;8.632;2023-02-02T07:11:00;101217.75;;;16.90;36.92
19150;BME280;9707;49.158;8.632;2023-02-02T07:13:25;101220.22;;;16.94;36.96
19150;BME280;9707;49.158;8.632;2023-02-02T07:15:50;101227.09;;;17.00;36.91
19150;BME280;9707;49.158;8.632;2023-02-02T07:18:16;101217.13;;;17.02;36.74
19150;BME280;9707;49.158;8.632;2023-02-02T07:20:41;101212.28;;;17.08;36.62
19150;BME280;9707;49.158;8.632;2023-02-02T07:23:06;101213.16;;;17.09;36.43
19150;BME280;9707;49.158;8.632;2023-02-02T07:25:32;101228.53;;;17.07;36.76
19150;BME280;9707;49.158;8.632;2023-02-02T07:27:57;101239.38;;;17.05;36.86
19150;BME280;9707;49.158;8.632;2023-02-02T07:30:22;101232.25;;;17.04;36.90
19150;BME280;9707;49.158;8.632;2023-02-02T07:32:49;101225.09;;;17.03;36.69
19150;BME280;9707;49.158;8.632;2023-02-02T07:35:15;101212.59;;;17.02;36.92
19150;BME280;9707;49.158;8.632;2023-02-02T07:37:41;101215.38;;;17.01;36.83
19150;BME280;9707;49.158;8.632;2023-02-02T07:40:07;101223.44;;;17.01;36.80
19150;BME280;9707;49.158;8.632;2023-02-02T07:42:32;101228.03;;;16.99;36.89
19150;BME280;9707;49.158;8.632;2023-02-02T07:45:00;101219.97;;;16.99;37.13
19150;BME280;9707;49.158;8.632;2023-02-02T07:47:26;101220.94;;;16.98;36.95
19150;BME280;9707;49.158;8.632;2023-02-02T07:49:51;101234.31;;;16.99;36.88
19150;BME280;9707;49.158;8.632;2023-02-02T07:52:16;101240.56;;;17.00;37.03
19150;BME280;9707;49.158;8.632;2023-02-02T07:54:42;101237.84;;;17.00;36.98
19150;BME280;9707;49.158;8.632;2023-02-02T07:57:07;101237.78;;;17.01;37.14
19150;BME280;9707;49.158;8.632;2023-02-02T07:59:32;101258.44;;;17.01;37.36
19150;BME280;9707;49.158;8.632;2023-02-02T08:01:58;101260.19;;;17.02;37.20
19150;BME280;9707;49.158;8.632;2023-02-02T08:04:23;101257.50;;;17.02;36.97
19150;BME280;9707;49.158;8.632;2023-02-02T08:06:48;101251.00;;;17.06;37.12
19150;BME280;9707;49.158;8.632;2023-02-02T08:09:14;101263.34;;;17.10;37.06
19150;BME280;9707;49.158;8.632;2023-02-02T08:11:39;101264.25;;;17.10;36.81
19150;BME280;9707;49.158;8.632;2023-02-02T08:14:05;101256.09;;;17.12;36.77
19150;BME280;9707;49.158;8.632;2023-02-02T08:16:31;101261.47;;;17.12;37.07
19150;BME280;9707;49.158;8.632;2023-02-02T08:18:57;101255.19;;;17.11;36.77
19150;BME280;9707;49.158;8.632;2023-02-02T08:21:22;101248.22;;;17.07;36.72
19150;BME280;9707;49.158;8.632;2023-02-02T08:23:48;101262.72;;;17.05;36.85
19150;BME280;9707;49.158;8.632;2023-02-02T08:26:17;101261.94;;;17.03;37.16
19150;BME280;9707;49.158;8.632;2023-02-02T08:28:45;101265.47;;;17.03;37.23
19150;BME280;9707;49.158;8.632;2023-02-02T08:31:13;101264.69;;;17.01;37.17
19150;BME280;9707;49.158;8.632;2023-02-02T08:33:40;101271.13;;;16.99;37.07
19150;BME280;9707;49.158;8.632;2023-02-02T08:36:13;101289.19;;;16.97;37.07
19150;BME280;9707;49.158;8.632;2023-02-02T08:38:39;101292.78;;;16.96;37.05
19150;BME280;9707;49.158;8.632;2023-02-02T08:41:06;101291.69;;;17.00;37.09
19150;BME280;9707;49.158;8.632;2023-02-02T08:43:32;101286.94;;;17.05;36.97
19150;BME280;9707;49.158;8.632;2023-02-02T08:45:57;101281.97;;;17.14;37.08
19150;BME280;9707;49.158;8.632;2023-02-02T08:48:23;101278.00;;;17.21;36.52
19150;BME280;9707;49.158;8.632;2023-02-02T08:50:56;101283.25;;;17.24;36.35
19150;BME280;9707;49.158;8.632;2023-02-02T08:53:21;101287.75;;;17.24;36.64
19150;BME280;9707;49.158;8.632;2023-02-02T08:55:47;101281.47;;;17.23;36.59
19150;BME280;9707;49.158;8.632;2023-02-02T08:58:12;101287.81;;;17.22;36.64
19150;BME280;9707;49.158;8.632;2023-02-02T09:00:38;101287.13;;;17.19;36.64
19150;BME280;9707;49.158;8.632;2023-02-02T09:03:04;101292.56;;;17.17;36.74
19150;BME280;9707;49.158;8.632;2023-02-02T09:05:29;101302.50;;;17.17;36.59
19150;BME280;9707;49.158;8.632;2023-02-02T09:07:55;101306.09;;;17.16;36.76
19150;BME280;9707;49.158;8.632;2023-02-02T09:10:20;101309.75;;;17.15;36.79
19150;BME280;9707;49.158;8.632;2023-02-02T09:12:46;101298.22;;;17.13;36.66
19150;BME280;9707;49.158;8.632;2023-02-02T09:15:11;101302.63;;;17.14;37.03
19150;BME280;9707;49.158;8.632;2023-02-02T09:17:37;101304.38;;;17.15;36.76
19150;BME280;9707;49.158;8.632;2023-02-02T09:20:03;101309.59;;;17.18;36.75
19150;BME280;9707;49.158;8.632;2023-02-02T09:22:29;101309.59;;;17.18;36.74
19150;BME280;9707;49.158;8.632;2023-02-02T09:24:54;101305.97;;;17.19;36.75
19150;BME280;9707;49.158;8.632;2023-02-02T09:27:19;101314.03;;;17.19;36.63
19150;BME280;9707;49.158;8.632;2023-02-02T09:29:45;101308.59;;;17.20;36.62
19150;BME280;9707;49.158;8.632;2023-02-02T09:32:10;101314.81;;;17.21;36.60
19150;BME280;9707;49.158;8.632;2023-02-02T09:34:35;101311.19;;;17.22;36.59
19150;BME280;9707;49.158;8.632;2023-02-02T09:37:01;101320.13;;;17.22;36.76
19150;BME280;9707;49.158;8.632;2023-02-02T09:39:26;101321.03;;;17.23;37.24
19150;BME280;9707;49.158;8.632;2023-02-02T09:44:56;101322.91;;;17.21;36.88
19150;BME280;9707;49.158;8.632;2023-02-02T09:47:27;101319.34;;;17.20;36.67
19150;BME280;9707;49.158;8.632;2023-02-02T09:52:28;101324.66;;;17.22;36.96
19150;BME280;9707;49.158;8.632;2023-02-02T09:55:01;101321.03;;;17.23;36.66
19150;BME280;9707;49.158;8.632;2023-02-02T09:57:34;101323.84;;;17.20;36.77
19150;BME280;9707;49.158;8.632;2023-02-02T10:00:02;101329.25;;;17.20;36.67
19150;BME280;9707;49.158;8.632;2023-02-02T10:02:34;101321.16;;;17.20;36.88
19150;BME280;9707;49.158;8.632;2023-02-02T10:05:26;101324.75;;;17.20;36.85
19150;BME280;9707;49.158;8.632;2023-02-02T10:07:58;101322.91;;;17.21;36.94
19150;BME280;9707;49.158;8.632;2023-02-02T10:10:31;101321.97;;;17.22;36.83
19150;BME280;9707;49.158;8.632;2023-02-02T10:13:04;101325.44;;;17.24;36.82
19150;BME280;9707;49.158;8.632;2023-02-02T10:18:20;101316.41;;;17.25;36.95
19150;BME280;9707;49.158;8.632;2023-02-02T10:23:33;101322.59;;;17.27;37.20
19150;BME280;9707;49.158;8.632;2023-02-02T10:26:09;101323.38;;;17.29;36.96
19150;BME280;9707;49.158;8.632;2023-02-02T10:42:02;101335.56;;;17.36;37.01
19150;BME280;9707;49.158;8.632;2023-02-02T10:44:36;101345.44;;;17.37;36.89
19150;BME280;9707;49.158;8.632;2023-02-02T10:47:09;101333.75;;;17.36;36.78
19150;BME280;9707;49.158;8.632;2023-02-02T10:49:37;101330.06;;;17.39;36.74
19150;BME280;9707;49.158;8.632;2023-02-02T10:57:19;101332.78;;;17.39;36.74
19150;BME280;9707;49.158;8.632;2023-02-02T11:00:24;101331.97;;;17.37;36.91
19150;BME280;9707;49.158;8.632;2023-02-02T11:02:53;101324.81;;;17.36;36.67
19150;BME280;9707;49.158;8.632;2023-02-02T11:05:27;101330.19;;;17.36;36.80
19150;BME280;9707;49.158;8.632;2023-02-02T11:08:13;101340.13;;;17.35;36.90
19150;BME280;9707;49.158;8.632;2023-02-02T11:10:39;101342.72;;;17.37;37.16
19150;BME280;9707;49.158;8.632;2023-02-02T11:13:06;101348.97;;;17.37;36.94
19150;BME280;9707;49.158;8.632;2023-02-02T11:15:36;101356.09;;;17.38;37.00
19150;BME280;9707;49.158;8.632;2023-02-02T11:18:32;101351.63;;;17.39;37.35
19150;BME280;9707;49.158;8.632;2023-02-02T11:20:57;101355.25;;;17.38;37.37
19150;BME280;9707;49.158;8.632;2023-02-02T11:23:25;101356.09;;;17.38;37.22
19150;BME280;9707;49.158;8.632;2023-02-02T11:25:59;101351.63;;;17.39;37.20
19150;BME280;9707;49.158;8.632;2023-02-02T11:28:26;101351.63;;;17.39;37.18
19150;BME280;9707;49.158;8.632;2023-02-02T11:30:55;101347.97;;;17.40;37.02
19150;BME280;9707;49.158;8.632;2023-02-02T11:33:47;101348.00;;;17.38;36.95
19150;BME280;9707;49.158;8.632;2023-02-02T11:36:19;101346.25;;;17.39;36.96
19150;BME280;9707;49.158;8.632;2023-02-02T11:38:45;101342.59;;;17.40;36.79
19150;BME280;9707;49.158;8.632;2023-02-02T11:41:10;101341.75;;;17.39;36.61
19150;BME280;9707;49.158;8.632;2023-02-02T11:43:39;101334.44;;;17.41;36.47
19150;BME280;9707;49.158;8.632;2023-02-02T11:46:27;101341.56;;;17.42;36.54
19150;BME280;9707;49.158;8.632;2023-02-02T11:49:03;101336.09;;;17.44;36.66
19150;BME280;9707;49.158;8.632;2023-02-02T11:51:32;101338.78;;;17.44;36.40
19150;BME280;9707;49.158;8.632;2023-02-02T11:56:26;101329.75;;;17.45;36.59
19150;BME280;9707;49.158;8.632;2023-02-02T11:58:53;101319.88;;;17.45;36.54
19150;BME280;9707;49.158;8.632;2023-02-02T12:01:27;101316.22;;;17.46;36.30
19150;BME280;9707;49.158;8.632;2023-02-02T12:04:00;101324.38;;;17.45;36.45
19150;BME280;9707;49.158;8.632;2023-02-02T12:06:34;101321.66;;;17.45;36.75
19150;BME280;9707;49.158;8.632;2023-02-02T12:09:09;101321.59;;;17.46;36.16
19150;BME280;9707;49.158;8.632;2023-02-02T12:14:44;101313.78;;;17.42;36.02
19150;BME280;9707;49.158;8.632;2023-02-02T12:28:02;101326.72;;;17.34;35.69
19150;BME280;9707;49.158;8.632;2023-02-02T12:30:54;101319.59;;;17.33;35.63
19150;BME280;9707;49.158;8.632;2023-02-02T12:44:31;101310.00;;;17.27;35.94
19150;BME280;9707;49.158;8.632;2023-02-02T12:49:57;101304.47;;;17.30;36.04
19150;BME280;9707;49.158;8.632;2023-02-02T12:52:43;101310.56;;;17.34;35.85
19150;BME280;9707;49.158;8.632;2023-02-02T12:55:22;101301.53;;;17.35;35.91
19150;BME280;9707;49.158;8.632;2023-02-02T13:06:04;101292.41;;;17.37;36.04
19150;BME280;9707;49.158;8.632;2023-02-02T13:08:42;101303.16;;;17.39;35.89
19150;BME280;9707;49.158;8.632;2023-02-02T13:11:15;101297.75;;;17.39;36.09
19150;BME280;9707;49.158;8.632;2023-02-02T13:14:23;101300.19;;;17.43;36.10
19150;BME280;9707;49.158;8.632;2023-02-02T13:16:49;101299.00;;;17.49;35.62
19150;BME280;9707;49.158;8.632;2023-02-02T13:21:51;101318.50;;;17.54;35.61
19150;BME280;9707;49.158;8.632;2023-02-02T13:24:26;101318.56;;;17.52;35.90
19150;BME280;9707;49.158;8.632;2023-02-02T13:26:53;101308.75;;;17.51;35.70
19150;BME280;9707;49.158;8.632;2023-02-02T13:34:53;101324.03;;;17.51;35.98
19150;BME280;9707;49.158;8.632;2023-02-02T13:40:21;101314.28;;;17.48;35.99
19150;BME280;9707;49.158;8.632;2023-02-02T13:45:42;101326.91;;;17.48;36.07
19150;BME280;9707;49.158;8.632;2023-02-02T13:48:28;101327.69;;;17.50;36.01
19150;BME280;9707;49.158;8.632;2023-02-02T13:54:01;101341.97;;;17.52;36.22
19150;BME280;9707;49.158;8.632;2023-02-02T13:56:46;101341.00;;;17.53;36.40
19150;BME280;9707;49.158;8.632;2023-02-02T13:59:29;101346.31;;;17.54;36.37
19150;BME280;9707;49.158;8.632;2023-02-02T14:02:01;101347.03;;;17.58;36.49
19150;BME280;9707;49.158;8.632;2023-02-02T14:04:29;101343.06;;;17.65;36.48
19150;BME280;9707;49.158;8.632;2023-02-02T14:06:59;101351.75;;;17.70;36.19
19150;BME280;9707;49.158;8.632;2023-02-02T14:09:34;101346.31;;;17.71;36.01
19150;BME280;9707;49.158;8.632;2023-02-02T14:12:04;101357.94;;;17.72;36.28
19150;BME280;9707;49.158;8.632;2023-02-02T14:14:32;101355.25;;;17.72;36.10
19150;BME280;9707;49.158;8.632;2023-02-02T14:17:52;101352.66;;;17.70;36.05
19150;BME280;9707;49.158;8.632;2023-02-02T14:19:58;101367.94;;;17.70;36.15
19150;BME280;9707;49.158;8.632;2023-02-02T14:22:41;101370.63;;;17.70;35.97
19150;BME280;9707;49.158;8.632;2023-02-02T14:27:59;101375.38;;;17.65;36.12
19150;BME280;9707;49.158;8.632;2023-02-02T14:30:32;101365.56;;;17.64;36.10
19150;BME280;9707;49.158;8.632;2023-02-02T14:33:21;101362.88;;;17.64;35.95
19150;BME280;9707;49.158;8.632;2023-02-02T14:40:52;101382.69;;;17.63;35.70
19150;BME280;9707;49.158;8.632;2023-02-02T14:43:38;101384.50;;;17.62;35.84
19150;BME280;9707;49.158;8.632;2023-02-02T14:48:39;101398.84;;;17.63;35.74
19150;BME280;9707;49.158;8.632;2023-02-02T14:51:20;101394.50;;;17.60;35.87
19150;BME280;9707;49.158;8.632;2023-02-02T14:53:51;101398.84;;;17.63;35.73
19150;BME280;9707;49.158;8.632;2023-02-02T14:56:18;101395.22;;;17.64;35.79
19150;BME280;9707;49.158;8.632;2023-02-02T15:03:52;101410.50;;;17.63;35.56
19150;BME280;9707;49.158;8.632;2023-02-02T15:22:47;101435.13;;;17.56;35.47
19150;BME280;9707;49.158;8.632;2023-02-02T15:25:39;101438.72;;;17.56;35.50